createdAt,value
2023-03-26T00:01:23.484Z,92.96
2023-03-26T00:03:54.511Z,93.03
2023-03-26T00:06:24.797Z,93.07
2023-03-26T00:08:53.847Z,93.44
2023-03-26T00:11:23.635Z,93.15
2023-03-26T00:13:53.548Z,92.98
2023-03-26T00:16:22.429Z,92.95
2023-03-26T00:18:51.542Z,92.21
2023-03-26T00:21:21.503Z,92.04
2023-03-26T00:23:49.587Z,92.06
2023-03-26T00:26:18.704Z,91.98
2023-03-26T00:28:46.196Z,92.05
2023-03-26T00:31:15.860Z,92.92
2023-03-26T00:33:44.814Z,93.35
2023-03-26T00:36:16.591Z,94.16
2023-03-26T00:38:44.763Z,94.54
2023-03-26T00:41:23.120Z,95.04
2023-03-26T00:43:53.257Z,95.60
2023-03-26T00:46:21.103Z,96.78
2023-03-26T00:48:50.587Z,97.45
2023-03-26T00:51:19.556Z,98.65
2023-03-26T00:53:48.692Z,99.22
2023-03-26T00:56:16.496Z,100.00
2023-03-26T00:58:44.356Z,100.00
2023-03-26T01:01:15.502Z,100.00
2023-03-26T01:03:56.714Z,100.00
2023-03-26T01:06:36.184Z,100.00
2023-03-26T01:09:10.993Z,100.00
2023-03-26T01:11:38.531Z,100.00
2023-03-26T01:14:12.441Z,100.00
2023-03-26T01:16:44.811Z,100.00
2023-03-26T01:19:21.104Z,100.00
2023-03-26T01:21:50.261Z,100.00
2023-03-26T01:24:19.175Z,100.00
2023-03-26T01:27:17.643Z,100.00
2023-03-26T01:29:52.443Z,100.00
2023-03-26T01:32:28.611Z,100.00
2023-03-26T01:35:14.010Z,100.00
2023-03-26T01:37:52.685Z,100.00
2023-03-26T01:40:26.902Z,100.00
2023-03-26T01:43:01.448Z,100.00
2023-03-26T01:45:33.362Z,100.00
2023-03-26T01:48:01.325Z,100.00
2023-03-26T01:50:28.768Z,100.00
2023-03-26T01:52:56.198Z,100.00
2023-03-26T01:55:29.188Z,100.00
2023-03-26T01:58:03.671Z,100.00
2023-03-26T02:00:34.333Z,100.00
2023-03-26T02:03:19.000Z,100.00
2023-03-26T02:05:52.380Z,100.00
2023-03-26T02:08:24.765Z,100.00
2023-03-26T02:10:57.795Z,100.00
2023-03-26T02:13:26.333Z,100.00
2023-03-26T02:15:59.624Z,100.00
2023-03-26T02:18:36.543Z,100.00
2023-03-26T02:21:09.931Z,100.00
2023-03-26T02:23:38.390Z,100.00
2023-03-26T02:26:09.048Z,100.00
2023-03-26T02:28:36.771Z,100.00
2023-03-26T02:31:04.732Z,100.00
2023-03-26T02:33:33.316Z,100.00
2023-03-26T02:36:01.768Z,100.00
2023-03-26T02:38:29.753Z,100.00
2023-03-26T02:40:57.255Z,100.00
2023-03-26T02:43:27.142Z,100.00
2023-03-26T02:45:55.097Z,100.00
2023-03-26T02:48:22.792Z,100.00
2023-03-26T02:50:54.228Z,100.00
2023-03-26T02:53:23.804Z,100.00
2023-03-26T02:55:51.448Z,100.00
2023-03-26T02:58:19.971Z,100.00
2023-03-26T03:00:50.687Z,100.00
2023-03-26T03:03:18.271Z,100.00
2023-03-26T03:05:45.729Z,100.00
2023-03-26T03:08:13.268Z,100.00
2023-03-26T03:10:41.064Z,100.00
2023-03-26T03:13:08.501Z,100.00
2023-03-26T03:15:36.130Z,100.00
2023-03-26T03:18:05.050Z,100.00
2023-03-26T03:20:35.027Z,100.00
2023-03-26T03:23:02.570Z,100.00
2023-03-26T03:25:30.125Z,100.00
2023-03-26T03:27:57.562Z,100.00
2023-03-26T03:30:25.204Z,100.00
2023-03-26T03:32:52.726Z,100.00
2023-03-26T03:35:21.689Z,100.00
2023-03-26T03:37:49.210Z,100.00
2023-03-26T03:40:16.698Z,100.00
2023-03-26T03:42:44.199Z,100.00
2023-03-26T03:45:12.227Z,100.00
2023-03-26T03:47:39.891Z,100.00
2023-03-26T03:50:09.171Z,100.00
2023-03-26T03:52:38.160Z,100.00
2023-03-26T03:55:06.362Z,100.00
2023-03-26T03:57:34.646Z,100.00
2023-03-26T04:00:03.203Z,100.00
2023-03-26T04:02:34.927Z,100.00
2023-03-26T04:05:03.535Z,100.00
2023-03-26T04:07:32.155Z,100.00
2023-03-26T04:10:02.746Z,100.00
2023-03-26T04:12:31.310Z,100.00
2023-03-26T04:14:59.632Z,100.00
2023-03-26T04:17:30.242Z,100.00
2023-03-26T04:19:57.814Z,100.00
2023-03-26T04:22:36.307Z,100.00
2023-03-26T04:25:05.548Z,100.00
2023-03-26T04:27:35.367Z,100.00
2023-03-26T04:30:03.744Z,100.00
2023-03-26T04:32:33.966Z,100.00
2023-03-26T04:35:03.877Z,100.00
2023-03-26T04:37:34.725Z,100.00
2023-03-26T04:40:02.333Z,100.00
2023-03-26T04:42:33.249Z,100.00
2023-03-26T04:45:02.959Z,100.00
2023-03-26T04:47:30.562Z,100.00
2023-03-26T04:49:58.176Z,100.00
2023-03-26T04:52:25.842Z,100.00
2023-03-26T04:54:53.545Z,100.00
2023-03-26T04:57:26.149Z,100.00
2023-03-26T04:59:55.026Z,100.00
2023-03-26T05:02:23.010Z,100.00
2023-03-26T05:04:50.524Z,100.00
2023-03-26T05:07:20.225Z,100.00
2023-03-26T05:09:47.892Z,100.00
2023-03-26T05:12:16.298Z,100.00
2023-03-26T05:14:43.757Z,100.00
2023-03-26T05:17:18.678Z,100.00
2023-03-26T05:19:46.975Z,100.00
2023-03-26T05:22:14.746Z,100.00
2023-03-26T05:24:43.286Z,100.00
2023-03-26T05:27:15.059Z,100.00
2023-03-26T05:29:42.535Z,100.00
2023-03-26T05:32:10.377Z,100.00
2023-03-26T05:34:39.510Z,100.00
2023-03-26T05:37:07.005Z,100.00
2023-03-26T05:39:35.518Z,100.00
2023-03-26T05:42:03.177Z,100.00
2023-03-26T05:44:30.674Z,100.00
2023-03-26T05:46:58.092Z,100.00
2023-03-26T05:49:25.743Z,100.00
2023-03-26T05:51:55.535Z,100.00
2023-03-26T05:54:23.063Z,100.00
2023-03-26T05:56:50.579Z,100.00
2023-03-26T05:59:18.004Z,100.00
2023-03-26T06:01:45.595Z,100.00
2023-03-26T06:04:13.578Z,100.00
2023-03-26T06:06:41.177Z,100.00
2023-03-26T06:09:11.938Z,100.00
2023-03-26T06:11:40.105Z,100.00
2023-03-26T06:14:07.793Z,100.00
2023-03-26T06:16:35.323Z,100.00
2023-03-26T06:19:02.832Z,100.00
2023-03-26T06:21:30.328Z,100.00
2023-03-26T06:23:57.834Z,100.00
2023-03-26T06:26:26.628Z,100.00
2023-03-26T06:28:54.025Z,100.00
2023-03-26T06:31:21.520Z,100.00
2023-03-26T06:33:49.564Z,100.00
2023-03-26T06:36:17.058Z,100.00
2023-03-26T06:38:44.580Z,100.00
2023-03-26T06:41:12.018Z,100.00
2023-03-26T06:43:40.863Z,100.00
2023-03-26T06:46:08.392Z,100.00
2023-03-26T06:48:35.951Z,100.00
2023-03-26T06:51:03.485Z,100.00
2023-03-26T06:53:30.944Z,100.00
2023-03-26T06:55:58.404Z,100.00
2023-03-26T06:58:25.864Z,100.00
2023-03-26T07:00:56.036Z,100.00
2023-03-26T07:03:24.150Z,100.00
2023-03-26T07:05:51.668Z,100.00
2023-03-26T07:08:19.149Z,100.00
2023-03-26T07:10:47.643Z,100.00
2023-03-26T07:13:16.288Z,100.00
2023-03-26T07:15:43.785Z,100.00
2023-03-26T07:18:12.595Z,100.00
2023-03-26T07:20:42.234Z,100.00
2023-03-26T07:23:11.917Z,100.00
2023-03-26T07:25:40.113Z,100.00
2023-03-26T07:28:14.253Z,100.00
2023-03-26T07:30:51.577Z,100.00
2023-03-26T07:33:28.546Z,100.00
2023-03-26T07:36:05.861Z,100.00
2023-03-26T07:38:44.824Z,100.00
2023-03-26T07:41:18.902Z,100.00
2023-03-26T07:44:05.898Z,100.00
2023-03-26T07:46:36.819Z,100.00
2023-03-26T07:49:06.669Z,100.00
2023-03-26T07:51:35.050Z,100.00
2023-03-26T07:54:04.090Z,100.00
2023-03-26T07:56:36.131Z,100.00
2023-03-26T07:59:27.727Z,100.00
2023-03-26T08:02:18.173Z,100.00
2023-03-26T08:04:57.355Z,100.00
2023-03-26T08:07:37.379Z,100.00
2023-03-26T08:10:11.703Z,100.00
2023-03-26T08:12:47.570Z,100.00
2023-03-26T08:15:26.005Z,100.00
2023-03-26T08:17:58.835Z,100.00
2023-03-26T08:20:38.333Z,100.00
2023-03-26T08:23:13.182Z,100.00
2023-03-26T08:25:50.599Z,100.00
2023-03-26T08:28:30.323Z,100.00
2023-03-26T08:30:58.431Z,100.00
2023-03-26T08:33:28.307Z,100.00
2023-03-26T08:35:57.602Z,100.00
2023-03-26T08:38:25.041Z,100.00
2023-03-26T08:41:39.129Z,100.00
2023-03-26T08:45:03.455Z,100.00
2023-03-26T08:47:55.494Z,100.00
2023-03-26T08:50:49.471Z,100.00
2023-03-26T08:53:46.738Z,100.00
2023-03-26T08:56:25.841Z,100.00
2023-03-26T08:59:22.407Z,100.00
2023-03-26T09:02:17.810Z,100.00
2023-03-26T09:05:28.762Z,100.00
2023-03-26T09:08:54.258Z,100.00
2023-03-26T09:11:58.145Z,100.00
2023-03-26T09:15:02.169Z,100.00
2023-03-26T09:18:11.367Z,100.00
2023-03-26T09:21:16.370Z,100.00
2023-03-26T09:24:27.612Z,100.00
2023-03-26T09:27:08.200Z,100.00
2023-03-26T09:30:10.920Z,100.00
2023-03-26T09:33:24.167Z,100.00
2023-03-26T09:35:54.868Z,100.00
2023-03-26T09:38:44.044Z,100.00
2023-03-26T09:41:31.611Z,100.00
2023-03-26T09:44:28.152Z,100.00
2023-03-26T09:47:29.119Z,100.00
2023-03-26T09:50:13.333Z,100.00
2023-03-26T09:53:04.526Z,100.00
2023-03-26T09:55:50.870Z,100.00
2023-03-26T09:58:49.142Z,100.00
2023-03-26T10:01:25.595Z,100.00
2023-03-26T10:04:01.674Z,100.00
2023-03-26T10:06:52.836Z,100.00
2023-03-26T10:09:41.969Z,100.00
2023-03-26T10:12:24.246Z,100.00
2023-03-26T10:15:08.396Z,100.00
2023-03-26T10:17:47.322Z,100.00
2023-03-26T10:20:32.774Z,100.00
2023-03-26T10:23:16.111Z,100.00
2023-03-26T10:26:08.338Z,100.00
2023-03-26T10:28:56.681Z,100.00
2023-03-26T10:31:41.793Z,100.00
2023-03-26T10:34:28.498Z,100.00
2023-03-26T10:37:05.185Z,100.00
2023-03-26T10:39:49.930Z,100.00
2023-03-26T10:42:36.980Z,100.00
2023-03-26T10:45:20.793Z,100.00
2023-03-26T10:50:53.248Z,100.00
2023-03-26T10:53:32.702Z,100.00
2023-03-26T10:56:10.824Z,100.00
2023-03-26T10:58:48.398Z,100.00
2023-03-26T11:01:25.105Z,100.00
2023-03-26T11:03:55.585Z,100.00
2023-03-26T11:06:33.342Z,100.00
2023-03-26T11:09:12.257Z,100.00
2023-03-26T11:11:48.616Z,100.00
2023-03-26T11:14:33.906Z,100.00
2023-03-26T11:17:39.340Z,100.00
2023-03-26T11:20:10.811Z,100.00
2023-03-26T11:22:50.712Z,100.00
2023-03-26T11:25:31.882Z,100.00
2023-03-26T11:28:12.903Z,100.00
2023-03-26T11:30:49.418Z,100.00
2023-03-26T11:33:21.817Z,100.00
2023-03-26T11:35:53.710Z,100.00
2023-03-26T11:38:43.583Z,100.00
2023-03-26T11:41:15.786Z,100.00
2023-03-26T11:43:53.316Z,100.00
2023-03-26T11:46:25.722Z,100.00
2023-03-26T11:48:57.494Z,100.00
2023-03-26T11:51:33.041Z,100.00
2023-03-26T11:54:00.897Z,100.00
2023-03-26T11:56:33.666Z,100.00
2023-03-26T11:59:05.419Z,100.00
2023-03-26T12:01:44.188Z,100.00
2023-03-26T12:04:14.522Z,100.00
2023-03-26T12:06:53.387Z,100.00
2023-03-26T12:09:21.540Z,100.00
2023-03-26T12:11:51.268Z,100.00
2023-03-26T12:14:21.869Z,100.00
2023-03-26T12:17:01.120Z,100.00
2023-03-26T12:19:38.070Z,100.00
2023-03-26T12:22:07.290Z,100.00
2023-03-26T12:24:37.062Z,100.00
2023-03-26T12:27:28.290Z,100.00
2023-03-26T12:30:00.992Z,100.00
2023-03-26T12:32:45.615Z,100.00
2023-03-26T12:35:19.319Z,100.00
2023-03-26T12:37:48.736Z,100.00
2023-03-26T12:40:31.595Z,100.00
2023-03-26T12:44:56.100Z,100.00
2023-03-26T12:46:03.910Z,100.00
2023-03-26T12:48:39.487Z,100.00
2023-03-26T12:51:18.440Z,100.00
2023-03-26T12:54:05.318Z,100.00
2023-03-26T12:56:44.022Z,100.00
2023-03-26T12:59:28.555Z,100.00
2023-03-26T13:02:05.784Z,100.00
2023-03-26T13:05:05.109Z,100.00
2023-03-26T13:07:47.825Z,100.00
2023-03-26T13:10:35.092Z,100.00
2023-03-26T13:13:19.393Z,100.00
2023-03-26T13:15:52.640Z,100.00
2023-03-26T13:18:28.348Z,100.00
2023-03-26T13:21:02.668Z,100.00
2023-03-26T13:23:40.426Z,100.00
2023-03-26T13:26:19.353Z,100.00
2023-03-26T13:28:59.114Z,100.00
2023-03-26T13:31:31.138Z,100.00
2023-03-26T13:34:10.331Z,100.00
2023-03-26T13:36:49.778Z,100.00
2023-03-26T13:39:28.494Z,100.00
2023-03-26T13:42:15.534Z,100.00
2023-03-26T13:45:04.392Z,100.00
2023-03-26T13:47:37.846Z,100.00
2023-03-26T13:50:15.661Z,100.00
2023-03-26T13:52:46.570Z,100.00
2023-03-26T13:55:22.946Z,100.00
2023-03-26T13:57:57.648Z,100.00
2023-03-26T14:00:32.545Z,100.00
2023-03-26T14:03:05.450Z,100.00
2023-03-26T14:05:40.156Z,100.00
2023-03-26T14:08:17.133Z,100.00
2023-03-26T14:10:50.733Z,100.00
2023-03-26T14:13:25.852Z,100.00
2023-03-26T14:15:57.995Z,100.00
2023-03-26T14:18:36.368Z,100.00
2023-03-26T14:21:33.356Z,100.00
2023-03-26T14:24:25.700Z,100.00
2023-03-26T14:27:10.088Z,100.00
2023-03-26T14:30:01.235Z,100.00
2023-03-26T14:32:43.707Z,100.00
2023-03-26T14:35:29.164Z,100.00
2023-03-26T14:38:32.774Z,100.00
2023-03-26T14:41:11.278Z,100.00
2023-03-26T14:44:08.359Z,100.00
2023-03-26T14:46:50.769Z,100.00
2023-03-26T14:50:05.024Z,100.00
2023-03-26T14:52:43.237Z,100.00
2023-03-26T14:55:17.834Z,100.00
2023-03-26T14:58:03.718Z,100.00
2023-03-26T15:01:18.792Z,100.00
2023-03-26T15:04:22.192Z,100.00
2023-03-26T15:07:22.105Z,100.00
2023-03-26T15:10:43.132Z,100.00
2023-03-26T15:13:46.809Z,100.00
2023-03-26T15:16:50.567Z,100.00
2023-03-26T15:19:58.949Z,100.00
2023-03-26T15:23:13.114Z,100.00
2023-03-26T15:26:09.803Z,100.00
2023-03-26T15:29:18.917Z,100.00
2023-03-26T15:32:22.192Z,100.00
2023-03-26T15:35:17.569Z,100.00
2023-03-26T15:38:15.960Z,100.00
2023-03-26T15:41:00.877Z,100.00
2023-03-26T15:44:24.276Z,100.00
2023-03-26T15:46:58.518Z,100.00
2023-03-26T15:49:36.447Z,100.00
2023-03-26T15:52:17.177Z,100.00
2023-03-26T15:54:52.206Z,100.00
2023-03-26T15:57:28.558Z,100.00
2023-03-26T16:00:14.980Z,100.00
2023-03-26T16:02:53.936Z,100.00
2023-03-26T16:05:32.078Z,100.00
2023-03-26T16:08:09.359Z,100.00
2023-03-26T16:10:44.551Z,100.00
2023-03-26T16:13:35.160Z,100.00
2023-03-26T16:16:41.425Z,100.00
2023-03-26T16:19:36.870Z,100.00
2023-03-26T16:22:07.478Z,100.00
2023-03-26T16:24:38.707Z,100.00
2023-03-26T16:27:29.010Z,100.00
2023-03-26T16:30:19.482Z,100.00
2023-03-26T16:32:55.934Z,100.00
2023-03-26T16:36:02.842Z,100.00
2023-03-26T16:38:50.420Z,100.00
2023-03-26T16:41:21.947Z,100.00
2023-03-26T16:44:04.976Z,100.00
2023-03-26T16:46:43.509Z,100.00
2023-03-26T16:49:26.915Z,100.00
2023-03-26T16:52:06.772Z,100.00
2023-03-26T16:54:45.990Z,100.00
2023-03-26T16:57:25.905Z,100.00
2023-03-26T17:00:24.109Z,100.00
2023-03-26T17:02:59.692Z,100.00
2023-03-26T17:05:37.189Z,100.00
2023-03-26T17:08:13.133Z,100.00
2023-03-26T17:10:47.418Z,100.00
2023-03-26T17:13:24.000Z,100.00
2023-03-26T17:16:02.361Z,100.00
2023-03-26T17:18:40.820Z,100.00
2023-03-26T17:21:14.793Z,100.00
2023-03-26T17:24:02.395Z,100.00
2023-03-26T17:26:42.118Z,100.00
2023-03-26T17:29:24.277Z,100.00
2023-03-26T17:31:59.257Z,100.00
2023-03-26T17:34:56.657Z,100.00
2023-03-26T17:37:45.660Z,100.00
2023-03-26T17:40:47.455Z,100.00
2023-03-26T17:43:46.032Z,100.00
2023-03-26T17:46:35.369Z,100.00
2023-03-26T17:49:09.249Z,100.00
2023-03-26T17:51:47.449Z,100.00
2023-03-26T17:54:20.707Z,100.00
2023-03-26T17:56:49.545Z,100.00
2023-03-26T17:59:23.226Z,100.00
2023-03-26T18:01:55.703Z,100.00
2023-03-26T18:04:29.713Z,100.00
2023-03-26T18:07:35.955Z,100.00
2023-03-26T18:10:18.575Z,100.00
2023-03-26T18:13:08.345Z,100.00
2023-03-26T18:15:47.176Z,100.00
2023-03-26T18:18:20.829Z,100.00
2023-03-26T18:20:50.573Z,100.00
2023-03-26T18:23:24.894Z,100.00
2023-03-26T18:25:57.947Z,100.00
2023-03-26T18:28:36.740Z,100.00
2023-03-26T18:31:18.568Z,100.00
2023-03-26T18:33:50.057Z,100.00
2023-03-26T18:36:19.624Z,100.00
2023-03-26T18:38:48.736Z,100.00
2023-03-26T18:41:27.159Z,100.00
2023-03-26T18:43:57.398Z,100.00
2023-03-26T18:46:25.823Z,100.00
2023-03-26T18:48:55.629Z,100.00
2023-03-26T18:51:23.669Z,100.00
2023-03-26T18:53:55.647Z,100.00
2023-03-26T18:56:34.394Z,100.00
2023-03-26T18:59:03.910Z,100.00
2023-03-26T19:01:34.089Z,100.00
2023-03-26T19:04:06.820Z,100.00
2023-03-26T19:06:38.112Z,100.00
2023-03-26T19:09:13.744Z,100.00
2023-03-26T19:11:50.321Z,100.00
2023-03-26T19:14:20.015Z,100.00
2023-03-26T19:16:56.100Z,100.00
2023-03-26T19:19:29.706Z,100.00
2023-03-26T19:22:00.916Z,100.00
2023-03-26T19:24:28.830Z,100.00
2023-03-26T19:26:57.261Z,100.00
2023-03-26T19:29:28.183Z,100.00
2023-03-26T19:32:03.492Z,100.00
2023-03-26T19:34:35.813Z,100.00
2023-03-26T19:37:17.880Z,100.00
2023-03-26T19:39:47.566Z,100.00
2023-03-26T19:42:17.534Z,100.00
2023-03-26T19:44:46.961Z,100.00
2023-03-26T19:47:18.501Z,100.00
2023-03-26T19:49:54.050Z,100.00
2023-03-26T19:52:25.052Z,100.00
2023-03-26T19:55:01.359Z,100.00
2023-03-26T19:57:30.843Z,100.00
2023-03-26T19:59:58.604Z,100.00
2023-03-26T20:02:26.600Z,100.00
2023-03-26T20:04:57.563Z,100.00
2023-03-26T20:07:35.662Z,100.00
2023-03-26T20:10:05.286Z,100.00
2023-03-26T20:12:32.990Z,100.00
2023-03-26T20:15:01.552Z,100.00
2023-03-26T20:17:30.641Z,100.00
2023-03-26T20:20:02.292Z,100.00
2023-03-26T20:22:29.889Z,100.00
2023-03-26T20:25:00.558Z,100.00
2023-03-26T20:27:28.081Z,100.00
2023-03-26T20:29:55.744Z,100.00
2023-03-26T20:32:27.008Z,100.00
2023-03-26T20:34:55.042Z,100.00
2023-03-26T20:37:24.120Z,100.00
2023-03-26T20:39:51.691Z,100.00
2023-03-26T20:42:19.253Z,100.00
2023-03-26T20:44:49.222Z,100.00
2023-03-26T20:47:17.195Z,100.00
2023-03-26T20:49:44.783Z,100.00
2023-03-26T20:52:16.037Z,100.00
2023-03-26T20:54:49.132Z,100.00
2023-03-26T20:57:16.760Z,100.00
2023-03-26T20:59:45.591Z,100.00
2023-03-26T21:02:13.355Z,100.00
2023-03-26T21:04:41.418Z,100.00
2023-03-26T21:07:17.773Z,100.00
2023-03-26T21:09:48.938Z,100.00
2023-03-26T21:12:23.396Z,100.00
2023-03-26T21:14:51.722Z,100.00
2023-03-26T21:17:24.568Z,100.00
2023-03-26T21:19:52.484Z,100.00
2023-03-26T21:22:31.400Z,100.00
2023-03-26T21:25:17.016Z,100.00
2023-03-26T21:27:55.405Z,100.00
2023-03-26T21:30:23.611Z,100.00
2023-03-26T21:32:52.017Z,100.00
2023-03-26T21:35:20.558Z,100.00
2023-03-26T21:37:50.748Z,100.00
2023-03-26T21:40:21.877Z,100.00
2023-03-26T21:42:52.062Z,100.00
2023-03-26T21:45:21.628Z,100.00
2023-03-26T21:47:50.655Z,100.00
2023-03-26T21:50:21.691Z,100.00
2023-03-26T21:52:50.750Z,100.00
2023-03-26T21:55:21.826Z,100.00
2023-03-26T21:58:05.648Z,100.00
2023-03-26T22:00:43.411Z,100.00
2023-03-26T22:03:19.632Z,100.00
2023-03-26T22:05:53.741Z,100.00
2023-03-26T22:08:28.318Z,100.00
2023-03-26T22:10:57.742Z,100.00
2023-03-26T22:13:28.565Z,100.00
2023-03-26T22:15:56.706Z,100.00
2023-03-26T22:18:25.978Z,100.00
2023-03-26T22:20:54.160Z,100.00
2023-03-26T22:23:21.823Z,100.00
2023-03-26T22:25:49.496Z,100.00
2023-03-26T22:28:19.149Z,100.00
2023-03-26T22:30:47.091Z,100.00
2023-03-26T22:33:17.747Z,100.00
2023-03-26T22:35:45.526Z,100.00
2023-03-26T22:38:13.011Z,100.00
2023-03-26T22:40:40.475Z,100.00
2023-03-26T22:43:08.937Z,100.00
2023-03-26T22:45:37.851Z,100.00
2023-03-26T22:48:05.728Z,100.00
2023-03-26T22:50:33.389Z,100.00
2023-03-26T22:53:00.920Z,100.00
2023-03-26T22:55:30.035Z,100.00
2023-03-26T22:57:57.835Z,100.00
2023-03-26T23:00:26.272Z,100.00
2023-03-26T23:03:00.246Z,100.00
2023-03-26T23:05:28.423Z,100.00
2023-03-26T23:07:56.957Z,100.00
2023-03-26T23:10:24.395Z,100.00
2023-03-26T23:12:53.267Z,100.00
2023-03-26T23:15:20.836Z,100.00
2023-03-26T23:17:54.890Z,100.00
2023-03-26T23:20:24.110Z,100.00
2023-03-26T23:22:52.320Z,100.00
2023-03-26T23:25:19.825Z,100.00
2023-03-26T23:27:48.237Z,99.03
2023-03-26T23:30:16.583Z,98.68
2023-03-26T23:32:44.074Z,98.93
2023-03-26T23:35:12.033Z,99.12
2023-03-26T23:37:42.126Z,98.18
2023-03-26T23:40:10.695Z,99.02
2023-03-26T23:42:38.311Z,98.11
2023-03-26T23:45:06.530Z,97.46
2023-03-26T23:47:35.144Z,96.77
2023-03-26T23:50:03.303Z,96.88
2023-03-26T23:52:31.230Z,96.48
2023-03-26T23:55:00.726Z,98.17
2023-03-26T23:57:28.973Z,97.85
2023-03-26T23:59:56.480Z,98.55
